Time;durP1;ratioP1;P1;durP2;ratioP2;P2;SDS_P1;SDS_P2;PMS_P1;PMS_P2;Temp;Humidity;BMP_temperature;BMP_pressure;BME280_temperature;BME280_humidity;BME280_pressure;Samples;Min_cycle;Max_cycle;Signal;HPM_P1;HPM_P2
2023/09/14 00:01:25;;;;;;;;;;;;;;;17.54;47.21;100995.81;5058404;28;1051;-61
2023/09/14 00:03:54;;;;;;;;;;;;;;;17.17;47.07;100991.41;5070730;28;1062;-60
2023/09/14 00:06:19;;;;;;;;;;;;;;;16.97;46.72;100975.72;5070427;28;1115;-60
2023/09/14 00:08:45;;;;;;;;;;;;;;;16.91;46.01;100985.88;5063326;28;1913;-60
2023/09/14 00:11:11;;;;;;;;;;;;;;;16.91;45.37;100976.78;5077621;28;1054;-61
2023/09/14 00:13:36;;;;;;;;;;;;;;;17.54;46.65;100981.25;5058341;28;1173;-61
2023/09/14 00:16:02;;;;;;;;;;;;;;;17.16;46.82;100977.94;5075158;28;998;-61
2023/09/14 00:18:28;;;;;;;;;;;;;;;17.04;46.14;100986.41;5070861;28;2465;-60
2023/09/14 00:20:53;;;;;;;;;;;;;;;16.91;45.80;100985.00;5065837;28;1036;-60
2023/09/14 00:23:20;;;;;;;;;;;;;;;16.85;45.38;100980.59;5040179;28;1111;-60
2023/09/14 00:25:46;;;;;;;;;;;;;;;16.85;45.27;100977.84;5070139;28;1008;-60
2023/09/14 00:28:11;;;;;;;;;;;;;;;16.78;45.16;100980.84;5058154;28;1909;-60
2023/09/14 00:30:37;;;;;;;;;;;;;;;16.77;44.77;100974.53;5057985;28;1127;-61
2023/09/14 00:33:02;;;;;;;;;;;;;;;16.59;45.18;100972.25;5063429;28;1087;-60
2023/09/14 00:35:28;;;;;;;;;;;;;;;17.43;46.30;100963.94;5046880;28;1054;-59
2023/09/14 00:37:53;;;;;;;;;;;;;;;17.07;46.75;100983.16;5075669;28;1130;-59
2023/09/14 00:40:19;;;;;;;;;;;;;;;16.95;46.25;100980.63;5069335;28;836;-59
2023/09/14 00:42:46;;;;;;;;;;;;;;;16.83;45.84;100971.78;5064195;28;1077;-59
2023/09/14 00:45:14;;;;;;;;;;;;;;;16.75;45.50;100971.22;5075650;28;1007;-59
2023/09/14 00:47:40;;;;;;;;;;;;;;;17.73;45.76;100979.59;5052467;28;1932;-58
2023/09/14 00:50:06;;;;;;;;;;;;;;;17.12;46.34;100974.91;5039705;28;1036;-59
2023/09/14 00:52:36;;;;;;;;;;;;;;;17.00;45.89;100972.41;5041230;28;1123;-59
2023/09/14 00:55:04;;;;;;;;;;;;;;;16.81;45.62;100968.50;5069479;28;1159;-58
2023/09/14 00:57:29;;;;;;;;;;;;;;;16.83;45.28;100974.53;5071087;28;1241;-59
2023/09/14 00:59:55;;;;;;;;;;;;;;;17.74;46.38;100969.41;5070299;28;1179;-59
2023/09/14 01:02:20;;;;;;;;;;;;;;;17.23;47.20;100965.56;5044129;28;1143;-60
2023/09/14 01:04:46;;;;;;;;;;;;;;;16.99;46.65;100969.94;5069694;28;1058;-60
2023/09/14 01:07:15;;;;;;;;;;;;;;;16.97;46.09;100961.97;5057510;28;1003;-60
2023/09/14 01:09:40;;;;;;;;;;;;;;;16.91;45.47;100963.88;5070267;28;1043;-59
2023/09/14 01:12:08;;;;;;;;;;;;;;;16.82;45.16;100959.16;5061160;28;1039;-59
2023/09/14 01:14:44;;;;;;;;;;;;;;;17.31;45.87;100961.47;5066008;28;1043;-59
2023/09/14 01:17:14;;;;;;;;;;;;;;;17.18;46.60;100951.84;5046280;28;2306;-58
2023/09/14 01:19:45;;;;;;;;;;;;;;;17.07;46.08;100956.50;5043771;28;991;-58
2023/09/14 01:22:22;;;;;;;;;;;;;;;17.77;46.55;100957.88;5048820;28;1136;-59
2023/09/14 01:24:52;;;;;;;;;;;;;;;17.37;46.62;100959.53;5059182;28;1113;-58
2023/09/14 01:27:17;;;;;;;;;;;;;;;17.17;46.25;100963.09;5042102;28;1994;-58
2023/09/14 01:29:44;;;;;;;;;;;;;;;17.12;45.80;100963.09;5052026;28;1393;-59
2023/09/14 01:32:09;;;;;;;;;;;;;;;16.86;45.59;100966.59;5038440;28;2113;-60
2023/09/14 01:34:35;;;;;;;;;;;;;;;17.69;46.54;100966.69;5056068;28;1150;-60
2023/09/14 01:37:02;;;;;;;;;;;;;;;17.21;46.71;100962.28;5058016;28;1190;-60
2023/09/14 01:39:28;;;;;;;;;;;;;;;17.10;46.15;100971.59;5049821;28;1166;-60
2023/09/14 01:41:55;;;;;;;;;;;;;;;16.99;45.82;100964.44;5049707;28;1297;-58
2023/09/14 01:44:25;;;;;;;;;;;;;;;17.03;45.17;100965.56;5045367;28;1380;-59
2023/09/14 01:46:50;;;;;;;;;;;;;;;16.90;45.30;100964.13;5075962;28;1035;-59
2023/09/14 01:49:16;;;;;;;;;;;;;;;17.85;45.92;100962.81;5070631;28;2533;-58
2023/09/14 01:51:42;;;;;;;;;;;;;;;17.26;46.86;100956.78;5049734;28;1238;-59
2023/09/14 01:54:07;;;;;;;;;;;;;;;17.09;46.33;100959.78;5039619;28;1189;-58
2023/09/14 01:56:33;;;;;;;;;;;;;;;17.05;45.56;100963.34;5049814;28;1430;-58
2023/09/14 01:58:58;;;;;;;;;;;;;;;16.81;45.55;100958.31;5053156;28;1152;-59
2023/09/14 02:01:24;;;;;;;;;;;;;;;16.90;45.13;100966.88;5049943;28;1150;-59
2023/09/14 02:03:49;;;;;;;;;;;;;;;17.47;45.88;100964.22;5053181;28;1258;-59
2023/09/14 02:06:15;;;;;;;;;;;;;;;17.24;46.51;100966.41;5064747;28;987;-58
2023/09/14 02:08:40;;;;;;;;;;;;;;;17.13;45.91;100964.75;5073863;28;1901;-58
2023/09/14 02:11:06;;;;;;;;;;;;;;;16.97;45.35;100956.47;5064916;28;1023;-58
2023/09/14 02:13:34;;;;;;;;;;;;;;;16.93;45.20;100960.88;5051262;28;1227;-58
2023/09/14 02:15:59;;;;;;;;;;;;;;;16.93;44.88;100969.91;5048049;28;1130;-58
2023/09/14 02:18:25;;;;;;;;;;;;;;;16.81;44.69;100957.50;5071069;28;2218;-58
2023/09/14 02:20:50;;;;;;;;;;;;;;;16.76;44.70;100955.56;5067251;28;1118;-58
2023/09/14 02:23:17;;;;;;;;;;;;;;;16.70;44.87;100949.22;5058593;28;1090;-58
2023/09/14 02:25:43;;;;;;;;;;;;;;;16.59;44.61;100953.88;5037815;28;1135;-58
2023/09/14 02:28:09;;;;;;;;;;;;;;;17.12;44.88;100952.91;5050720;28;1910;-59
2023/09/14 02:30:37;;;;;;;;;;;;;;;17.32;46.79;100945.78;5056416;28;1086;-60
2023/09/14 02:33:03;;;;;;;;;;;;;;;16.97;46.40;100956.47;5065101;28;1047;-60
2023/09/14 02:35:28;;;;;;;;;;;;;;;16.86;45.74;100947.34;5049916;28;1311;-60
2023/09/14 02:37:54;;;;;;;;;;;;;;;17.76;46.11;100951.53;5042381;28;1215;-60
2023/09/14 02:40:20;;;;;;;;;;;;;;;17.09;46.96;100947.97;5070934;28;1232;-60
2023/09/14 02:42:45;;;;;;;;;;;;;;;16.96;46.50;100954.81;5056698;28;1149;-60
2023/09/14 02:45:11;;;;;;;;;;;;;;;17.53;46.67;100952.09;5072577;28;1011;-59
2023/09/14 02:47:37;;;;;;;;;;;;;;;17.28;47.06;100957.34;5060867;28;1910;-60
2023/09/14 02:50:02;;;;;;;;;;;;;;;17.09;46.56;100948.78;5059305;28;1031;-59
2023/09/14 02:52:28;;;;;;;;;;;;;;;17.00;45.76;100952.34;5065843;28;1218;-60
2023/09/14 02:54:53;;;;;;;;;;;;;;;16.98;45.58;100952.63;5053599;28;1150;-60
2023/09/14 02:57:19;;;;;;;;;;;;;;;16.88;45.34;100952.56;5055968;28;1890;-60
2023/09/14 02:59:45;;;;;;;;;;;;;;;16.81;44.96;100946.53;5053503;28;1665;-60
2023/09/14 03:02:10;;;;;;;;;;;;;;;16.75;45.06;100953.91;5061528;28;1086;-59
2023/09/14 03:04:36;;;;;;;;;;;;;;;17.73;45.70;100951.28;5041925;28;1171;-60
2023/09/14 03:07:02;;;;;;;;;;;;;;;17.08;46.49;100963.63;5041605;28;1238;-60
2023/09/14 03:09:28;;;;;;;;;;;;;;;16.90;46.15;100956.72;5041245;28;1910;-60
2023/09/14 03:11:54;;;;;;;;;;;;;;;16.89;45.75;100957.81;5046575;28;1115;-59
2023/09/14 03:14:19;;;;;;;;;;;;;;;17.45;46.14;100957.06;5067679;28;1319;-58
2023/09/14 03:16:45;;;;;;;;;;;;;;;17.20;46.81;100949.63;5045812;28;1409;-58
2023/09/14 03:19:10;;;;;;;;;;;;;;;17.00;46.59;100955.09;5076954;28;2552;-59
2023/09/14 03:21:36;;;;;;;;;;;;;;;16.86;45.98;100960.28;5061066;28;1091;-58
2023/09/14 03:24:02;;;;;;;;;;;;;;;16.90;45.52;100961.38;5052362;28;1246;-59
2023/09/14 03:26:27;;;;;;;;;;;;;;;16.72;45.42;100952.53;5042998;28;1232;-58
2023/09/14 03:28:53;;;;;;;;;;;;;;;16.79;45.04;100960.53;5053704;28;1937;-58
2023/09/14 03:31:19;;;;;;;;;;;;;;;17.73;45.91;100952.09;5056005;28;1097;-58
2023/09/14 03:33:49;;;;;;;;;;;;;;;17.34;47.11;100955.41;5052200;28;1308;-57
2023/09/14 03:36:18;;;;;;;;;;;;;;;16.98;46.77;100949.88;5046597;28;1156;-58
2023/09/14 03:38:44;;;;;;;;;;;;;;;16.95;46.16;100947.66;5049000;28;1111;-57
2023/09/14 03:41:11;;;;;;;;;;;;;;;16.95;45.54;100950.41;5054824;28;1922;-57
2023/09/14 03:43:37;;;;;;;;;;;;;;;16.84;45.15;100956.97;5047117;28;1171;-58
2023/09/14 03:46:03;;;;;;;;;;;;;;;16.77;44.92;100958.06;5072228;28;1103;-58
2023/09/14 03:48:28;;;;;;;;;;;;;;;16.76;44.71;100959.13;5070671;28;2768;-57
2023/09/14 03:50:57;;;;;;;;;;;;;;;16.82;45.20;100961.91;5047087;28;1085;-59
2023/09/14 03:53:22;;;;;;;;;;;;;;;16.82;46.32;100964.66;5074912;28;1082;-59
2023/09/14 03:55:48;;;;;;;;;;;;;;;16.73;45.73;100965.19;5059924;28;1859;-66
2023/09/14 03:58:14;;;;;;;;;;;;;;;17.43;46.92;100964.78;5048328;28;987;-58
2023/09/14 04:00:40;;;;;;;;;;;;;;;16.95;46.90;100957.84;5046001;28;1246;-58
2023/09/14 04:03:07;;;;;;;;;;;;;;;16.88;46.45;100958.06;5060540;28;1143;-61
2023/09/14 04:05:32;;;;;;;;;;;;;;;16.79;45.80;100954.19;5043888;28;1232;-59
2023/09/14 04:07:58;;;;;;;;;;;;;;;17.34;46.44;100960.91;5052784;28;1894;-60
2023/09/14 04:10:23;;;;;;;;;;;;;;;17.19;46.99;100953.47;5078210;28;1121;-58
2023/09/14 04:12:49;;;;;;;;;;;;;;;16.96;46.64;100967.72;5065593;28;1106;-59
2023/09/14 04:15:14;;;;;;;;;;;;;;;16.89;46.34;100970.75;5071689;28;1043;-58
2023/09/14 04:17:41;;;;;;;;;;;;;;;16.76;45.98;100972.06;5046102;28;2014;-59
2023/09/14 04:20:10;;;;;;;;;;;;;;;17.49;46.69;100971.09;5071157;28;1075;-58
2023/09/14 04:22:36;;;;;;;;;;;;;;;17.11;46.85;100976.00;5040393;28;1277;-61
2023/09/14 04:25:02;;;;;;;;;;;;;;;16.97;46.46;100972.97;5057988;28;1090;-60
2023/09/14 04:27:28;;;;;;;;;;;;;;;16.85;45.97;100966.84;5070505;28;1901;-56
2023/09/14 04:29:54;;;;;;;;;;;;;;;16.83;45.58;100963.53;5059129;28;1089;-56
2023/09/14 04:32:19;;;;;;;;;;;;;;;16.79;45.36;100960.53;5047273;28;1888;-56
2023/09/14 04:34:45;;;;;;;;;;;;;;;16.73;45.35;100962.44;5039644;28;1190;-56
2023/09/14 04:37:10;;;;;;;;;;;;;;;16.69;45.13;100971.47;5039951;28;1354;-59
2023/09/14 04:39:36;;;;;;;;;;;;;;;17.40;46.44;100967.22;5052956;28;1257;-58
2023/09/14 04:42:02;;;;;;;;;;;;;;;17.35;47.67;100976.31;5044599;28;1106;-57
2023/09/14 04:44:27;;;;;;;;;;;;;;;17.53;47.13;100974.09;5052530;28;1353;-58
2023/09/14 04:46:53;;;;;;;;;;;;;;;17.36;47.63;100975.22;5051458;28;1063;-63
2023/09/14 04:49:18;;;;;;;;;;;;;;;17.24;47.94;100969.97;5046445;28;2273;-57
2023/09/14 04:51:46;;;;;;;;;;;;;;;17.19;48.07;100969.13;5059252;28;1319;-57
2023/09/14 04:54:11;;;;;;;;;;;;;;;17.06;48.63;100976.81;5040203;28;1359;-58
2023/09/14 04:56:37;;;;;;;;;;;;;;;17.01;48.80;100974.06;5039676;28;1143;-63
2023/09/14 04:59:04;;;;;;;;;;;;;;;17.03;48.86;100974.63;5044848;28;1370;-66
2023/09/14 05:01:29;;;;;;;;;;;;;;;16.89;49.21;100976.22;5077314;28;1078;-57
2023/09/14 05:03:55;;;;;;;;;;;;;;;16.87;49.57;100972.88;5058984;28;1114;-57
2023/09/14 05:06:20;;;;;;;;;;;;;;;16.82;49.50;100970.16;5070484;28;895;-59
2023/09/14 05:08:46;;;;;;;;;;;;;;;16.83;49.77;100977.28;5053125;28;1959;-59
2023/09/14 05:11:12;;;;;;;;;;;;;;;16.71;50.00;100972.84;5039296;28;1185;-61
2023/09/14 05:13:37;;;;;;;;;;;;;;;16.68;50.41;100970.66;5070352;28;1099;-60
2023/09/14 05:16:03;;;;;;;;;;;;;;;16.60;50.69;100971.16;5064175;28;1095;-61
2023/09/14 05:18:28;;;;;;;;;;;;;;;16.58;50.64;100976.09;5040091;28;2202;-61
2023/09/14 05:20:54;;;;;;;;;;;;;;;16.56;50.57;100957.16;5051888;28;1278;-61
2023/09/14 05:23:20;;;;;;;;;;;;;;;16.56;50.87;100978.28;5050905;28;1202;-56
2023/09/14 05:25:46;;;;;;;;;;;;;;;16.50;50.91;100968.38;5038944;28;1202;-57
2023/09/14 05:28:12;;;;;;;;;;;;;;;16.53;51.09;100978.81;5075518;28;1905;-59
2023/09/14 05:30:38;;;;;;;;;;;;;;;16.49;51.10;100984.00;5049491;28;2150;-57
2023/09/14 05:33:04;;;;;;;;;;;;;;;16.43;51.07;100983.16;5056496;28;1424;-57
2023/09/14 05:35:30;;;;;;;;;;;;;;;16.42;51.37;100977.94;5057537;28;1217;-58
2023/09/14 05:37:56;;;;;;;;;;;;;;;16.38;51.39;100977.66;5042285;28;1222;-57
2023/09/14 05:40:22;;;;;;;;;;;;;;;16.38;51.65;100977.66;5058107;28;1284;-57
2023/09/14 05:42:48;;;;;;;;;;;;;;;16.31;51.58;100966.09;5051756;28;1147;-60
2023/09/14 05:45:13;;;;;;;;;;;;;;;16.35;51.68;100972.69;5056365;28;1119;-60
2023/09/14 05:47:41;;;;;;;;;;;;;;;16.25;51.97;100946.03;5044563;28;1901;-59
2023/09/14 05:50:08;;;;;;;;;;;;;;;16.28;51.92;100966.63;5046687;28;1167;-58
2023/09/14 05:52:33;;;;;;;;;;;;;;;16.25;52.20;100972.66;5045543;28;1274;-60
2023/09/14 05:54:59;;;;;;;;;;;;;;;17.32;50.42;100963.13;5076560;28;1230;-59
2023/09/14 05:57:27;;;;;;;;;;;;;;;17.01;51.16;100967.72;5049764;28;1102;-61
2023/09/14 05:59:53;;;;;;;;;;;;;;;16.73;51.67;100967.91;5049607;28;857;-56
2023/09/14 06:02:19;;;;;;;;;;;;;;;16.63;52.16;100961.56;5057788;28;1158;-56
2023/09/14 06:04:45;;;;;;;;;;;;;;;16.58;52.41;100959.63;5046916;28;1086;-58
2023/09/14 06:07:11;;;;;;;;;;;;;;;16.45;52.87;100960.94;5051343;28;1087;-57
2023/09/14 06:09:36;;;;;;;;;;;;;;;16.47;52.61;100953.28;5055962;28;1898;-57
2023/09/14 06:12:02;;;;;;;;;;;;;;;16.39;52.90;100949.13;5050597;28;1332;-57
2023/09/14 06:14:27;;;;;;;;;;;;;;;16.39;53.01;100960.09;5045802;28;1210;-58
2023/09/14 06:16:53;;;;;;;;;;;;;;;16.34;53.04;100960.09;5065905;28;972;-55
2023/09/14 06:19:19;;;;;;;;;;;;;;;16.33;53.02;100963.09;5064898;28;1039;-56
2023/09/14 06:21:44;;;;;;;;;;;;;;;16.38;53.12;100965.84;5068361;28;1121;-57
2023/09/14 06:24:10;;;;;;;;;;;;;;;16.25;53.65;100964.44;5061942;28;1143;-57
2023/09/14 06:26:36;;;;;;;;;;;;;;;16.24;53.32;100955.38;5074936;28;1023;-57
2023/09/14 06:29:01;;;;;;;;;;;;;;;16.24;53.53;100965.50;5056402;28;1968;-52
2023/09/14 06:31:26;;;;;;;;;;;;;;;16.72;53.29;100955.28;5056749;28;1123;-56
2023/09/14 06:33:52;;;;;;;;;;;;;;;17.27;52.26;100949.38;5055731;28;1066;-56
2023/09/14 06:36:20;;;;;;;;;;;;;;;16.81;53.32;100961.06;5058745;28;1055;-56
2023/09/14 06:38:46;;;;;;;;;;;;;;;16.63;53.52;100967.06;5064139;28;1042;-59
2023/09/14 06:41:15;;;;;;;;;;;;;;;16.55;53.98;100965.63;5057558;28;1055;-58
2023/09/14 06:43:40;;;;;;;;;;;;;;;16.55;53.80;100971.13;5075083;28;1144;-58
2023/09/14 06:46:06;;;;;;;;;;;;;;;16.55;53.62;100971.13;5067757;28;1141;-58
2023/09/14 06:48:32;;;;;;;;;;;;;;;16.47;53.80;100968.94;5074885;28;1901;-57
2023/09/14 06:50:57;;;;;;;;;;;;;;;16.46;54.14;100970.81;5072397;28;1007;-56
2023/09/14 06:53:23;;;;;;;;;;;;;;;16.45;54.01;100960.94;5070949;28;1108;-58
2023/09/14 06:55:48;;;;;;;;;;;;;;;16.39;54.27;100960.09;5055375;28;1159;-58
2023/09/14 06:58:14;;;;;;;;;;;;;;;16.36;54.25;100979.84;5073605;28;1139;-58
2023/09/14 07:00:40;;;;;;;;;;;;;;;16.30;54.17;100969.94;5059360;28;1158;-57
2023/09/14 07:03:05;;;;;;;;;;;;;;;16.30;54.27;100975.44;5063338;28;1202;-57
2023/09/14 07:05:34;;;;;;;;;;;;;;;16.24;54.35;100974.59;5065600;28;1926;-57
2023/09/14 07:08:00;;;;;;;;;;;;;;;16.28;54.19;100985.03;5055472;28;1985;-58
2023/09/14 07:10:26;;;;;;;;;;;;;;;16.23;54.24;100981.16;5071233;28;1170;-60
2023/09/14 07:12:51;;;;;;;;;;;;;;;16.86;54.11;100972.06;5055576;28;1175;-58
2023/09/14 07:15:17;;;;;;;;;;;;;;;17.26;53.67;100976.03;5073044;28;1111;-58
2023/09/14 07:17:43;;;;;;;;;;;;;;;16.90;54.36;100977.88;5064709;28;1183;-59
2023/09/14 07:20:09;;;;;;;;;;;;;;;16.70;54.58;100978.59;5079184;28;1074;-59
2023/09/14 07:22:35;;;;;;;;;;;;;;;16.68;54.72;100976.13;5078105;28;1281;-59
2023/09/14 07:25:01;;;;;;;;;;;;;;;16.54;54.87;100981.28;5058815;28;1036;-62
2023/09/14 07:27:27;;;;;;;;;;;;;;;16.51;54.82;100979.09;5071906;28;1111;-60
2023/09/14 07:29:52;;;;;;;;;;;;;;;16.48;54.83;100987.03;5061948;28;1913;-59
2023/09/14 07:32:18;;;;;;;;;;;;;;;16.47;54.63;100969.75;5066816;28;1162;-60
2023/09/14 07:34:44;;;;;;;;;;;;;;;16.47;54.53;100982.66;5059381;28;1082;-60
2023/09/14 07:37:09;;;;;;;;;;;;;;;16.45;54.54;100979.34;5065561;28;1040;-59
2023/09/14 07:39:35;;;;;;;;;;;;;;;16.48;54.17;100973.31;5059289;28;1141;-60
2023/09/14 07:42:00;;;;;;;;;;;;;;;16.48;54.08;100981.53;5071856;28;1261;-63
2023/09/14 07:44:26;;;;;;;;;;;;;;;16.33;54.39;100979.56;5063904;28;1156;-62
2023/09/14 07:46:51;;;;;;;;;;;;;;;16.37;54.27;100980.69;5073517;28;1276;-62
2023/09/14 07:49:17;;;;;;;;;;;;;;;16.33;54.24;100982.31;5054887;28;1923;-62
2023/09/14 07:51:42;;;;;;;;;;;;;;;16.30;54.46;100977.34;5077239;28;1359;-61
2023/09/14 07:54:08;;;;;;;;;;;;;;;16.32;54.35;100984.22;5064460;28;1070;-61
2023/09/14 07:56:33;;;;;;;;;;;;;;;16.36;54.29;100979.84;5074588;28;1367;-65
2023/09/14 07:58:59;;;;;;;;;;;;;;;16.34;54.08;100981.19;5069407;28;1035;-59
2023/09/14 08:01:24;;;;;;;;;;;;;;;16.19;54.34;100973.72;5078335;28;1086;-62
2023/09/14 08:03:50;;;;;;;;;;;;;;;16.24;54.51;100971.84;5058646;28;1095;-60
2023/09/14 08:06:18;;;;;;;;;;;;;;;16.49;54.70;100980.44;5066587;28;1159;-60
2023/09/14 08:08:44;;;;;;;;;;;;;;;17.55;53.47;100971.91;5067375;28;1980;-61
2023/09/14 08:11:10;;;;;;;;;;;;;;;16.92;55.08;100970.19;5057795;28;1122;-60
2023/09/14 08:13:35;;;;;;;;;;;;;;;16.71;55.15;100975.59;5072581;28;1139;-62
2023/09/14 08:16:04;;;;;;;;;;;;;;;16.65;55.30;100975.84;5058245;28;1000;-57
2023/09/14 08:18:29;;;;;;;;;;;;;;;16.59;55.07;100970.34;5057679;28;1071;-58
2023/09/14 08:20:55;;;;;;;;;;;;;;;16.56;55.02;100956.31;5067200;28;1067;-57
2023/09/14 08:23:20;;;;;;;;;;;;;;;16.60;54.87;100965.66;5061876;28;1066;-57
2023/09/14 08:25:46;;;;;;;;;;;;;;;16.51;55.03;100970.00;5057415;28;1024;-57
2023/09/14 08:28:13;;;;;;;;;;;;;;;16.52;54.72;100968.94;5062486;28;1985;-57
2023/09/14 08:30:38;;;;;;;;;;;;;;;16.45;54.93;100968.34;5068712;28;1165;-58
2023/09/14 08:33:04;;;;;;;;;;;;;;;16.46;54.55;100965.34;5068843;28;1650;-58
2023/09/14 08:35:31;;;;;;;;;;;;;;;16.36;54.84;100952.41;5077822;28;1014;-58
2023/09/14 08:37:57;;;;;;;;;;;;;;;16.45;54.51;100955.44;5059095;28;1170;-58
2023/09/14 08:40:22;;;;;;;;;;;;;;;16.42;54.57;100959.56;5048785;28;1170;-58
2023/09/14 08:42:49;;;;;;;;;;;;;;;16.32;54.66;100956.78;5074586;28;1102;-58
2023/09/14 08:45:15;;;;;;;;;;;;;;;16.31;54.65;100952.38;5052136;28;1003;-59
2023/09/14 08:47:41;;;;;;;;;;;;;;;16.38;54.60;100950.22;5061579;28;1973;-58
2023/09/14 08:50:06;;;;;;;;;;;;;;;16.36;54.46;100944.16;5046779;28;1097;-58
2023/09/14 08:52:32;;;;;;;;;;;;;;;16.32;54.61;100947.72;5061535;28;1173;-58
2023/09/14 08:54:57;;;;;;;;;;;;;;;16.29;54.64;100942.78;5039327;28;867;-57
2023/09/14 08:57:23;;;;;;;;;;;;;;;16.89;54.78;100944.09;5040093;28;1043;-58
2023/09/14 08:59:48;;;;;;;;;;;;;;;17.24;54.62;100936.19;5077043;28;1102;-58
2023/09/14 09:02:14;;;;;;;;;;;;;;;16.95;55.32;100935.88;5076085;28;1018;-58
2023/09/14 09:04:40;;;;;;;;;;;;;;;16.84;55.36;100945.97;5047050;28;1028;-58
2023/09/14 09:07:06;;;;;;;;;;;;;;;16.63;55.57;100939.59;5076392;28;1229;-57
2023/09/14 09:09:31;;;;;;;;;;;;;;;16.65;55.39;100935.50;5076871;28;1902;-57
2023/09/14 09:11:57;;;;;;;;;;;;;;;16.62;55.23;100937.94;5059210;28;1082;-57
2023/09/14 09:14:23;;;;;;;;;;;;;;;16.56;55.25;100931.63;5070408;28;1110;-58
2023/09/14 09:16:49;;;;;;;;;;;;;;;16.54;55.12;100950.28;5057007;28;1198;-56
2023/09/14 09:19:15;;;;;;;;;;;;;;;16.54;55.13;100936.56;5056834;28;925;-58
2023/09/14 09:21:41;;;;;;;;;;;;;;;16.47;55.26;100939.56;5056629;28;1028;-57
2023/09/14 09:24:07;;;;;;;;;;;;;;;16.52;54.97;100941.47;5057015;28;1059;-55
2023/09/14 09:26:36;;;;;;;;;;;;;;;16.48;54.99;100943.97;5070039;28;1121;-57
2023/09/14 09:29:31;;;;;;;;;;;;;;;16.42;55.03;100934.88;5056726;28;1910;-58
2023/09/14 09:31:56;;;;;;;;;;;;;;;16.45;54.82;100943.66;5042614;28;1312;-58
2023/09/14 09:34:28;;;;;;;;;;;;;;;16.42;54.82;100934.88;5056742;28;1209;-57
2023/09/14 09:36:55;;;;;;;;;;;;;;;16.34;55.31;100932.66;5048644;28;1003;-59
2023/09/14 09:39:20;;;;;;;;;;;;;;;16.38;55.23;100928.28;5076181;28;1244;-57
2023/09/14 09:41:45;;;;;;;;;;;;;;;16.40;54.91;100925.25;5066114;28;1180;-57
2023/09/14 09:44:11;;;;;;;;;;;;;;;16.38;54.88;100933.75;5059820;28;1102;-59
2023/09/14 09:46:36;;;;;;;;;;;;;;;16.35;55.16;100928.78;5066194;28;1126;-59
2023/09/14 09:49:22;;;;;;;;;;;;;;;16.35;54.90;100928.78;5072863;28;1977;-57
2023/09/14 09:51:51;;;;;;;;;;;;;;;16.36;54.98;100924.97;5063195;28;1524;-59
2023/09/14 09:54:20;;;;;;;;;;;;;;;16.33;55.02;100932.91;5055744;28;1115;-58
2023/09/14 09:56:45;;;;;;;;;;;;;;;16.30;55.17;100920.56;5056304;28;977;-58
2023/09/14 09:59:14;;;;;;;;;;;;;;;16.32;54.81;100912.84;5067847;28;1143;-58
2023/09/14 10:01:40;;;;;;;;;;;;;;;16.29;55.03;100904.34;5064966;28;1062;-59
2023/09/14 10:04:09;;;;;;;;;;;;;;;16.35;54.75;100911.50;5069081;28;1030;-58
2023/09/14 10:06:35;;;;;;;;;;;;;;;17.31;55.37;100912.00;5056479;28;1040;-56
2023/09/14 10:09:06;;;;;;;;;;;;;;;17.06;56.15;100916.38;5075882;28;1975;-57
2023/09/14 10:11:32;;;;;;;;;;;;;;;16.82;56.18;100915.22;5058785;28;1083;-59
2023/09/14 10:13:58;;;;;;;;;;;;;;;16.74;55.88;100906.41;5050079;28;1063;-58
2023/09/14 10:16:23;;;;;;;;;;;;;;;16.65;56.03;100909.94;5058378;28;999;-58
2023/09/14 10:18:49;;;;;;;;;;;;;;;16.60;55.88;100908.03;5044987;28;1114;-58
2023/09/14 10:21:15;;;;;;;;;;;;;;;16.58;55.63;100910.22;5051269;28;1118;-59
2023/09/14 10:23:40;;;;;;;;;;;;;;;16.54;55.51;100912.66;5055425;28;1206;-57
2023/09/14 10:26:06;;;;;;;;;;;;;;;16.54;55.50;100907.19;5045421;28;1122;-57
2023/09/14 10:28:32;;;;;;;;;;;;;;;16.54;55.25;100903.63;5044461;28;1894;-59
2023/09/14 10:30:57;;;;;;;;;;;;;;;16.52;55.36;100914.03;5068402;28;1050;-59
2023/09/14 10:33:23;;;;;;;;;;;;;;;16.51;55.38;100904.97;5068770;28;1161;-60
2023/09/14 10:35:48;;;;;;;;;;;;;;;16.51;55.09;100920.59;5044995;28;970;-60
2023/09/14 10:38:14;;;;;;;;;;;;;;;16.43;55.28;100898.09;5050119;28;1075;-59
2023/09/14 10:40:39;;;;;;;;;;;;;;;16.43;55.19;100903.56;5069564;28;983;-58
2023/09/14 10:43:05;;;;;;;;;;;;;;;16.46;55.14;100902.22;5068498;28;1062;-57
2023/09/14 10:45:31;;;;;;;;;;;;;;;16.41;55.18;100904.94;5055638;28;1058;-62
2023/09/14 10:47:57;;;;;;;;;;;;;;;16.39;55.31;100896.97;5037572;28;1980;-59
2023/09/14 10:50:22;;;;;;;;;;;;;;;16.37;55.17;100904.66;5056235;28;1138;-58
2023/09/14 10:52:48;;;;;;;;;;;;;;;16.40;55.17;100901.38;5059927;28;1253;-58
2023/09/14 10:55:13;;;;;;;;;;;;;;;16.32;55.02;100895.59;5068846;28;1113;-60
2023/09/14 10:57:40;;;;;;;;;;;;;;;16.45;55.42;100899.75;5071468;28;1026;-60
2023/09/14 11:00:06;;;;;;;;;;;;;;;17.65;55.54;100894.91;5078923;28;1035;-58
2023/09/14 11:02:43;;;;;;;;;;;;;;;17.15;56.61;100885.59;5079363;28;1111;-60
2023/09/14 11:05:11;;;;;;;;;;;;;;;16.90;56.42;100889.97;5058868;28;984;-58
2023/09/14 11:07:37;;;;;;;;;;;;;;;16.77;56.15;100883.06;5066292;28;1969;-57
2023/09/14 11:10:03;;;;;;;;;;;;;;;16.72;56.12;100888.56;5066689;28;1225;-55
2023/09/14 11:12:28;;;;;;;;;;;;;;;16.67;56.19;100894.84;5065152;28;1073;-55
2023/09/14 11:15:14;;;;;;;;;;;;;;;16.60;56.03;100880.56;5058456;28;1147;-56
2023/09/14 11:17:43;;;;;;;;;;;;;;;16.65;55.75;100877.00;5072548;28;1056;-56
2023/09/14 11:20:17;;;;;;;;;;;;;;;16.69;55.17;100883.59;5077923;28;964;-52
2023/09/14 11:22:42;;;;;;;;;;;;;;;16.53;55.59;100880.00;5073325;28;1125;-56
2023/09/14 11:25:09;;;;;;;;;;;;;;;16.54;55.66;100881.66;5070152;28;1579;-57
2023/09/14 11:27:35;;;;;;;;;;;;;;;16.55;55.33;100872.31;5078595;28;1149;-56
2023/09/14 11:30:00;;;;;;;;;;;;;;;16.46;55.56;100874.75;5078500;28;1973;-57
2023/09/14 11:32:26;;;;;;;;;;;;;;;16.45;55.42;100870.34;5072233;28;1275;-59
2023/09/14 11:34:55;;;;;;;;;;;;;;;16.48;55.38;100875.34;5071626;28;1115;-55
2023/09/14 11:37:20;;;;;;;;;;;;;;;16.47;55.50;100872.88;5046686;28;1047;-56
2023/09/14 11:39:52;;;;;;;;;;;;;;;16.38;55.56;100865.16;5072050;28;1090;-56
2023/09/14 11:42:18;;;;;;;;;;;;;;;16.46;55.24;100858.28;5043766;28;1075;-55
2023/09/14 11:44:52;;;;;;;;;;;;;;;16.45;55.15;100866.81;5075071;28;931;-58
2023/09/14 11:47:18;;;;;;;;;;;;;;;16.35;55.28;100862.91;5075810;28;959;-57
2023/09/14 11:49:44;;;;;;;;;;;;;;;16.40;55.39;100862.94;5058509;28;1988;-56
2023/09/14 11:52:11;;;;;;;;;;;;;;;16.36;55.17;100869.25;5045195;28;1427;-61
2023/09/14 11:54:36;;;;;;;;;;;;;;;16.37;55.13;100860.75;5077626;28;1150;-56
2023/09/14 11:57:05;;;;;;;;;;;;;;;16.34;55.15;100864.03;5069404;28;1019;-57
2023/09/14 11:59:31;;;;;;;;;;;;;;;16.33;55.38;100865.13;5073730;28;1031;-56
2023/09/14 12:01:56;;;;;;;;;;;;;;;16.34;55.20;100866.78;5078545;28;1023;-56
2023/09/14 12:04:24;;;;;;;;;;;;;;;16.36;55.18;100867.31;5057098;28;1245;-57
2023/09/14 12:06:50;;;;;;;;;;;;;;;16.29;55.18;100864.00;5066952;28;1147;-57
2023/09/14 12:09:16;;;;;;;;;;;;;;;16.29;55.31;100855.78;5077529;28;1906;-57
2023/09/14 12:11:43;;;;;;;;;;;;;;;16.26;55.40;100859.06;5077813;28;1099;-57
2023/09/14 12:14:09;;;;;;;;;;;;;;;17.03;56.12;100867.47;5070057;28;1150;-56
2023/09/14 12:16:36;;;;;;;;;;;;;;;17.37;56.62;100861.41;5060667;28;1067;-57
2023/09/14 12:19:02;;;;;;;;;;;;;;;16.92;57.04;100860.31;5064411;28;1121;-57
2023/09/14 12:21:28;;;;;;;;;;;;;;;16.77;56.70;100853.69;5062138;28;937;-57
2023/09/14 12:23:53;;;;;;;;;;;;;;;16.72;56.14;100850.94;5061897;28;1010;-56
2023/09/14 12:26:19;;;;;;;;;;;;;;;16.67;56.13;100858.34;5058232;28;1015;-57
2023/09/14 12:28:52;;;;;;;;;;;;;;;16.62;55.84;100850.94;5059429;28;1998;-56
2023/09/14 12:31:18;;;;;;;;;;;;;;;16.62;55.86;100850.09;5077608;28;1066;-57
2023/09/14 12:33:44;;;;;;;;;;;;;;;16.56;55.67;100858.34;5058129;28;1119;-57
2023/09/14 12:36:11;;;;;;;;;;;;;;;16.54;55.63;100854.22;5057726;28;1142;-57
2023/09/14 12:38:37;;;;;;;;;;;;;;;16.50;55.45;100845.69;5058281;28;1120;-56
2023/09/14 12:41:04;;;;;;;;;;;;;;;16.51;55.45;100851.97;5059279;28;1035;-57
2023/09/14 12:43:29;;;;;;;;;;;;;;;16.41;55.47;100845.41;5059663;28;1147;-57